sensor_id;sensor_type;location;lat;lon;timestamp;P1;durP1;ratioP1;P2;durP2;ratioP2
30398;SDS011;17195;50.838;7.214;2023-04-29T00:00:02;12.75;;;10.55;;
30398;SDS011;17195;50.838;7.214;2023-04-29T00:02:30;12.93;;;10.63;;
30398;SDS011;17195;50.838;7.214;2023-04-29T00:04:56;11.65;;;9.73;;
30398;SDS011;17195;50.838;7.214;2023-04-29T00:07:22;12.55;;;10.45;;
30398;SDS011;17195;50.838;7.214;2023-04-29T00:09:48;12.48;;;9.70;;
30398;SDS011;17195;50.838;7.214;2023-04-29T00:12:13;12.18;;;10.25;;
30398;SDS011;17195;50.838;7.214;2023-04-29T00:14:39;14.50;;;10.75;;
30398;SDS011;17195;50.838;7.214;2023-04-29T00:17:07;12.68;;;9.88;;
30398;SDS011;17195;50.838;7.214;2023-04-29T00:19:32;13.07;;;11.15;;
30398;SDS011;17195;50.838;7.214;2023-04-29T00:21:58;11.88;;;10.02;;
30398;SDS011;17195;50.838;7.214;2023-04-29T00:24:25;13.18;;;10.48;;
30398;SDS011;17195;50.838;7.214;2023-04-29T00:26:51;13.00;;;9.60;;
30398;SDS011;17195;50.838;7.214;2023-04-29T00:29:16;12.32;;;10.45;;
30398;SDS011;17195;50.838;7.214;2023-04-29T00:31:42;14.13;;;10.93;;
30398;SDS011;17195;50.838;7.214;2023-04-29T00:34:08;14.98;;;10.65;;
30398;SDS011;17195;50.838;7.214;2023-04-29T00:36:34;11.48;;;9.65;;
30398;SDS011;17195;50.838;7.214;2023-04-29T00:39:00;14.20;;;10.38;;
30398;SDS011;17195;50.838;7.214;2023-04-29T00:41:26;13.93;;;10.63;;
30398;SDS011;17195;50.838;7.214;2023-04-29T00:43:51;13.38;;;9.23;;
30398;SDS011;17195;50.838;7.214;2023-04-29T00:46:17;11.15;;;8.73;;
30398;SDS011;17195;50.838;7.214;2023-04-29T00:48:42;11.90;;;9.63;;
30398;SDS011;17195;50.838;7.214;2023-04-29T00:51:08;16.02;;;10.68;;
30398;SDS011;17195;50.838;7.214;2023-04-29T00:53:34;16.80;;;11.48;;
30398;SDS011;17195;50.838;7.214;2023-04-29T00:56:01;15.40;;;11.43;;
30398;SDS011;17195;50.838;7.214;2023-04-29T00:58:28;16.85;;;12.15;;
30398;SDS011;17195;50.838;7.214;2023-04-29T01:01:00;15.40;;;10.95;;
30398;SDS011;17195;50.838;7.214;2023-04-29T01:03:27;17.02;;;11.63;;
30398;SDS011;17195;50.838;7.214;2023-04-29T01:12:01;15.20;;;10.65;;
30398;SDS011;17195;50.838;7.214;2023-04-29T01:14:30;14.93;;;10.88;;
30398;SDS011;17195;50.838;7.214;2023-04-29T01:16:58;15.43;;;11.10;;
30398;SDS011;17195;50.838;7.214;2023-04-29T01:22:14;16.05;;;11.48;;
30398;SDS011;17195;50.838;7.214;2023-04-29T01:24:41;16.10;;;10.02;;
30398;SDS011;17195;50.838;7.214;2023-04-29T01:27:19;15.90;;;11.10;;
30398;SDS011;17195;50.838;7.214;2023-04-29T01:29:58;16.30;;;11.30;;
30398;SDS011;17195;50.838;7.214;2023-04-29T01:32:45;18.13;;;11.48;;
30398;SDS011;17195;50.838;7.214;2023-04-29T01:37:56;17.85;;;11.30;;
30398;SDS011;17195;50.838;7.214;2023-04-29T01:43:23;20.00;;;12.45;;
30398;SDS011;17195;50.838;7.214;2023-04-29T01:45:52;17.58;;;12.10;;
30398;SDS011;17195;50.838;7.214;2023-04-29T01:48:20;16.33;;;11.25;;
30398;SDS011;17195;50.838;7.214;2023-04-29T01:50:46;16.80;;;10.75;;
30398;SDS011;17195;50.838;7.214;2023-04-29T01:53:12;16.55;;;10.80;;
30398;SDS011;17195;50.838;7.214;2023-04-29T01:55:37;17.90;;;11.98;;
30398;SDS011;17195;50.838;7.214;2023-04-29T01:58:03;18.92;;;10.95;;
30398;SDS011;17195;50.838;7.214;2023-04-29T02:00:28;20.17;;;11.88;;
30398;SDS011;17195;50.838;7.214;2023-04-29T02:02:54;18.92;;;13.23;;
30398;SDS011;17195;50.838;7.214;2023-04-29T02:05:19;20.25;;;13.75;;
30398;SDS011;17195;50.838;7.214;2023-04-29T02:07:45;20.33;;;14.07;;
30398;SDS011;17195;50.838;7.214;2023-04-29T02:10:11;22.90;;;13.80;;
30398;SDS011;17195;50.838;7.214;2023-04-29T02:12:37;22.73;;;14.10;;
30398;SDS011;17195;50.838;7.214;2023-04-29T02:15:03;21.88;;;13.20;;
30398;SDS011;17195;50.838;7.214;2023-04-29T02:17:29;25.55;;;14.73;;
30398;SDS011;17195;50.838;7.214;2023-04-29T02:19:54;23.40;;;14.98;;
30398;SDS011;17195;50.838;7.214;2023-04-29T02:22:20;23.55;;;14.60;;
30398;SDS011;17195;50.838;7.214;2023-04-29T02:24:46;21.95;;;14.80;;
30398;SDS011;17195;50.838;7.214;2023-04-29T02:27:11;22.98;;;14.80;;
30398;SDS011;17195;50.838;7.214;2023-04-29T02:29:37;26.83;;;16.20;;
30398;SDS011;17195;50.838;7.214;2023-04-29T02:32:03;22.05;;;14.95;;
30398;SDS011;17195;50.838;7.214;2023-04-29T02:34:28;26.33;;;17.52;;
30398;SDS011;17195;50.838;7.214;2023-04-29T02:36:55;30.02;;;19.08;;
30398;SDS011;17195;50.838;7.214;2023-04-29T02:39:21;29.48;;;19.27;;
30398;SDS011;17195;50.838;7.214;2023-04-29T02:41:47;32.45;;;20.20;;
30398;SDS011;17195;50.838;7.214;2023-04-29T02:44:13;32.03;;;20.58;;
30398;SDS011;17195;50.838;7.214;2023-04-29T02:46:38;34.22;;;21.08;;
30398;SDS011;17195;50.838;7.214;2023-04-29T02:49:09;36.58;;;22.10;;
30398;SDS011;17195;50.838;7.214;2023-04-29T02:51:35;33.95;;;21.67;;
30398;SDS011;17195;50.838;7.214;2023-04-29T02:54:00;36.72;;;22.55;;
30398;SDS011;17195;50.838;7.214;2023-04-29T02:56:26;41.80;;;25.15;;
30398;SDS011;17195;50.838;7.214;2023-04-29T02:58:52;40.03;;;25.35;;
30398;SDS011;17195;50.838;7.214;2023-04-29T03:01:17;41.90;;;26.15;;
30398;SDS011;17195;50.838;7.214;2023-04-29T03:03:43;41.90;;;26.20;;
30398;SDS011;17195;50.838;7.214;2023-04-29T03:06:08;45.53;;;27.15;;
30398;SDS011;17195;50.838;7.214;2023-04-29T03:08:34;44.97;;;28.30;;
30398;SDS011;17195;50.838;7.214;2023-04-29T03:10:59;44.78;;;27.48;;
30398;SDS011;17195;50.838;7.214;2023-04-29T03:13:25;47.45;;;27.02;;
30398;SDS011;17195;50.838;7.214;2023-04-29T03:15:51;43.97;;;26.08;;
30398;SDS011;17195;50.838;7.214;2023-04-29T03:18:16;42.92;;;26.85;;
30398;SDS011;17195;50.838;7.214;2023-04-29T03:20:42;44.95;;;25.77;;
30398;SDS011;17195;50.838;7.214;2023-04-29T03:23:07;43.88;;;25.73;;
30398;SDS011;17195;50.838;7.214;2023-04-29T03:25:33;42.45;;;25.27;;
30398;SDS011;17195;50.838;7.214;2023-04-29T03:27:58;43.92;;;24.90;;
30398;SDS011;17195;50.838;7.214;2023-04-29T03:30:24;44.13;;;24.60;;
30398;SDS011;17195;50.838;7.214;2023-04-29T03:32:49;45.45;;;24.80;;
30398;SDS011;17195;50.838;7.214;2023-04-29T03:35:15;42.42;;;24.67;;
30398;SDS011;17195;50.838;7.214;2023-04-29T03:37:41;48.08;;;26.48;;
30398;SDS011;17195;50.838;7.214;2023-04-29T03:40:08;41.38;;;24.90;;
30398;SDS011;17195;50.838;7.214;2023-04-29T03:42:35;46.80;;;27.20;;
30398;SDS011;17195;50.838;7.214;2023-04-29T03:45:00;43.95;;;26.75;;
30398;SDS011;17195;50.838;7.214;2023-04-29T03:47:26;52.05;;;29.13;;
30398;SDS011;17195;50.838;7.214;2023-04-29T03:49:51;50.53;;;29.60;;
30398;SDS011;17195;50.838;7.214;2023-04-29T03:52:17;45.10;;;26.48;;
30398;SDS011;17195;50.838;7.214;2023-04-29T03:54:42;45.63;;;28.08;;
30398;SDS011;17195;50.838;7.214;2023-04-29T03:57:08;50.08;;;28.90;;
30398;SDS011;17195;50.838;7.214;2023-04-29T03:59:34;49.60;;;29.33;;
30398;SDS011;17195;50.838;7.214;2023-04-29T04:02:00;51.55;;;29.92;;
30398;SDS011;17195;50.838;7.214;2023-04-29T04:04:25;55.53;;;31.92;;
30398;SDS011;17195;50.838;7.214;2023-04-29T04:06:51;57.38;;;33.03;;
30398;SDS011;17195;50.838;7.214;2023-04-29T04:09:19;55.70;;;33.05;;
30398;SDS011;17195;50.838;7.214;2023-04-29T04:11:44;63.75;;;35.50;;
30398;SDS011;17195;50.838;7.214;2023-04-29T04:14:10;62.70;;;34.85;;
30398;SDS011;17195;50.838;7.214;2023-04-29T04:16:36;70.63;;;36.50;;
30398;SDS011;17195;50.838;7.214;2023-04-29T04:19:01;74.97;;;37.15;;
30398;SDS011;17195;50.838;7.214;2023-04-29T04:21:27;71.78;;;37.50;;
30398;SDS011;17195;50.838;7.214;2023-04-29T04:23:54;68.72;;;34.80;;
30398;SDS011;17195;50.838;7.214;2023-04-29T04:26:19;68.35;;;33.28;;
30398;SDS011;17195;50.838;7.214;2023-04-29T04:28:45;66.53;;;32.78;;
30398;SDS011;17195;50.838;7.214;2023-04-29T04:31:11;67.75;;;33.95;;
30398;SDS011;17195;50.838;7.214;2023-04-29T04:33:39;72.60;;;33.55;;
30398;SDS011;17195;50.838;7.214;2023-04-29T04:36:05;78.82;;;33.88;;
30398;SDS011;17195;50.838;7.214;2023-04-29T04:38:31;82.18;;;34.00;;
30398;SDS011;17195;50.838;7.214;2023-04-29T04:40:57;77.03;;;33.97;;
30398;SDS011;17195;50.838;7.214;2023-04-29T04:43:23;83.72;;;36.97;;
30398;SDS011;17195;50.838;7.214;2023-04-29T04:45:49;80.75;;;35.67;;
30398;SDS011;17195;50.838;7.214;2023-04-29T04:48:14;81.22;;;36.03;;
30398;SDS011;17195;50.838;7.214;2023-04-29T04:50:40;82.45;;;37.75;;
30398;SDS011;17195;50.838;7.214;2023-04-29T04:53:05;84.40;;;36.72;;
30398;SDS011;17195;50.838;7.214;2023-04-29T04:55:31;80.32;;;35.20;;
30398;SDS011;17195;50.838;7.214;2023-04-29T04:58:00;84.82;;;37.13;;
30398;SDS011;17195;50.838;7.214;2023-04-29T05:00:26;79.40;;;35.65;;
30398;SDS011;17195;50.838;7.214;2023-04-29T05:02:51;80.63;;;35.13;;
30398;SDS011;17195;50.838;7.214;2023-04-29T05:05:17;78.43;;;36.08;;
30398;SDS011;17195;50.838;7.214;2023-04-29T05:07:43;77.13;;;34.40;;
30398;SDS011;17195;50.838;7.214;2023-04-29T05:10:08;71.65;;;32.97;;
30398;SDS011;17195;50.838;7.214;2023-04-29T05:12:34;72.40;;;32.85;;
30398;SDS011;17195;50.838;7.214;2023-04-29T05:15:00;68.40;;;30.75;;
30398;SDS011;17195;50.838;7.214;2023-04-29T05:17:26;65.43;;;31.02;;
30398;SDS011;17195;50.838;7.214;2023-04-29T05:19:51;66.72;;;30.48;;
30398;SDS011;17195;50.838;7.214;2023-04-29T05:22:17;66.80;;;30.98;;
30398;SDS011;17195;50.838;7.214;2023-04-29T05:24:42;76.25;;;34.45;;
30398;SDS011;17195;50.838;7.214;2023-04-29T05:27:08;74.55;;;33.92;;
30398;SDS011;17195;50.838;7.214;2023-04-29T05:29:33;74.32;;;34.80;;
30398;SDS011;17195;50.838;7.214;2023-04-29T05:31:59;74.63;;;34.78;;
30398;SDS011;17195;50.838;7.214;2023-04-29T05:34:25;72.07;;;33.95;;
30398;SDS011;17195;50.838;7.214;2023-04-29T05:36:50;71.28;;;34.53;;
30398;SDS011;17195;50.838;7.214;2023-04-29T05:39:16;71.97;;;34.60;;
30398;SDS011;17195;50.838;7.214;2023-04-29T05:41:42;64.50;;;33.22;;
30398;SDS011;17195;50.838;7.214;2023-04-29T05:44:08;71.53;;;34.50;;
30398;SDS011;17195;50.838;7.214;2023-04-29T05:46:34;68.45;;;34.17;;
30398;SDS011;17195;50.838;7.214;2023-04-29T05:48:59;65.35;;;31.67;;
30398;SDS011;17195;50.838;7.214;2023-04-29T05:51:25;59.63;;;30.38;;
30398;SDS011;17195;50.838;7.214;2023-04-29T05:53:52;56.72;;;28.20;;
30398;SDS011;17195;50.838;7.214;2023-04-29T05:56:20;58.65;;;28.90;;
30398;SDS011;17195;50.838;7.214;2023-04-29T05:58:46;60.83;;;30.13;;
30398;SDS011;17195;50.838;7.214;2023-04-29T06:01:12;60.10;;;29.42;;
30398;SDS011;17195;50.838;7.214;2023-04-29T06:03:37;56.85;;;28.42;;
30398;SDS011;17195;50.838;7.214;2023-04-29T06:06:03;61.42;;;30.05;;
30398;SDS011;17195;50.838;7.214;2023-04-29T06:08:28;59.60;;;28.90;;
30398;SDS011;17195;50.838;7.214;2023-04-29T06:10:54;55.17;;;27.05;;
30398;SDS011;17195;50.838;7.214;2023-04-29T06:13:20;57.25;;;27.20;;
30398;SDS011;17195;50.838;7.214;2023-04-29T06:15:45;56.25;;;26.88;;
30398;SDS011;17195;50.838;7.214;2023-04-29T06:18:11;51.70;;;27.20;;
30398;SDS011;17195;50.838;7.214;2023-04-29T06:20:37;51.67;;;27.52;;
30398;SDS011;17195;50.838;7.214;2023-04-29T06:23:02;48.50;;;25.70;;
30398;SDS011;17195;50.838;7.214;2023-04-29T06:25:29;46.58;;;26.17;;
30398;SDS011;17195;50.838;7.214;2023-04-29T06:27:56;46.78;;;25.60;;
30398;SDS011;17195;50.838;7.214;2023-04-29T06:30:21;48.13;;;26.15;;
30398;SDS011;17195;50.838;7.214;2023-04-29T06:32:47;47.05;;;25.92;;
30398;SDS011;17195;50.838;7.214;2023-04-29T06:35:13;44.67;;;24.50;;
30398;SDS011;17195;50.838;7.214;2023-04-29T06:37:38;45.25;;;25.88;;
30398;SDS011;17195;50.838;7.214;2023-04-29T06:40:05;43.55;;;24.48;;
30398;SDS011;17195;50.838;7.214;2023-04-29T06:42:31;42.45;;;22.50;;
30398;SDS011;17195;50.838;7.214;2023-04-29T06:44:56;40.95;;;22.38;;
30398;SDS011;17195;50.838;7.214;2023-04-29T06:47:22;35.13;;;20.20;;
30398;SDS011;17195;50.838;7.214;2023-04-29T06:49:47;37.42;;;19.58;;
30398;SDS011;17195;50.838;7.214;2023-04-29T06:52:13;35.72;;;20.52;;
30398;SDS011;17195;50.838;7.214;2023-04-29T06:54:39;34.42;;;20.00;;
30398;SDS011;17195;50.838;7.214;2023-04-29T06:57:04;33.83;;;18.48;;
30398;SDS011;17195;50.838;7.214;2023-04-29T06:59:30;33.00;;;19.13;;
30398;SDS011;17195;50.838;7.214;2023-04-29T07:01:56;33.63;;;18.45;;
30398;SDS011;17195;50.838;7.214;2023-04-29T07:04:22;33.20;;;19.23;;
30398;SDS011;17195;50.838;7.214;2023-04-29T07:06:47;34.65;;;18.85;;
30398;SDS011;17195;50.838;7.214;2023-04-29T07:09:13;30.80;;;18.45;;
30398;SDS011;17195;50.838;7.214;2023-04-29T07:11:39;32.33;;;18.92;;
30398;SDS011;17195;50.838;7.214;2023-04-29T07:14:05;33.53;;;18.65;;
30398;SDS011;17195;50.838;7.214;2023-04-29T07:16:31;28.83;;;18.88;;
30398;SDS011;17195;50.838;7.214;2023-04-29T07:18:56;29.90;;;18.27;;
30398;SDS011;17195;50.838;7.214;2023-04-29T07:21:22;29.67;;;18.23;;
30398;SDS011;17195;50.838;7.214;2023-04-29T07:23:48;33.08;;;20.95;;
30398;SDS011;17195;50.838;7.214;2023-04-29T07:26:14;31.38;;;19.92;;
30398;SDS011;17195;50.838;7.214;2023-04-29T07:28:41;29.63;;;19.73;;
30398;SDS011;17195;50.838;7.214;2023-04-29T07:31:06;30.17;;;19.08;;
30398;SDS011;17195;50.838;7.214;2023-04-29T07:33:33;29.48;;;18.92;;
30398;SDS011;17195;50.838;7.214;2023-04-29T07:35:59;27.33;;;17.58;;
30398;SDS011;17195;50.838;7.214;2023-04-29T07:38:25;26.73;;;18.52;;
30398;SDS011;17195;50.838;7.214;2023-04-29T07:40:51;29.40;;;18.35;;
30398;SDS011;17195;50.838;7.214;2023-04-29T07:43:17;29.77;;;18.95;;
30398;SDS011;17195;50.838;7.214;2023-04-29T07:45:42;27.65;;;18.00;;
30398;SDS011;17195;50.838;7.214;2023-04-29T07:48:08;28.27;;;19.00;;
30398;SDS011;17195;50.838;7.214;2023-04-29T07:50:34;30.42;;;19.45;;
30398;SDS011;17195;50.838;7.214;2023-04-29T07:53:00;30.45;;;19.08;;
30398;SDS011;17195;50.838;7.214;2023-04-29T07:55:26;32.38;;;20.67;;
30398;SDS011;17195;50.838;7.214;2023-04-29T07:57:54;29.02;;;20.05;;
30398;SDS011;17195;50.838;7.214;2023-04-29T08:00:20;31.73;;;20.90;;
30398;SDS011;17195;50.838;7.214;2023-04-29T08:02:49;29.95;;;20.85;;
30398;SDS011;17195;50.838;7.214;2023-04-29T08:05:16;28.10;;;19.33;;
30398;SDS011;17195;50.838;7.214;2023-04-29T08:07:41;31.10;;;20.60;;
30398;SDS011;17195;50.838;7.214;2023-04-29T08:10:07;29.77;;;20.58;;
30398;SDS011;17195;50.838;7.214;2023-04-29T08:12:33;31.50;;;22.65;;
30398;SDS011;17195;50.838;7.214;2023-04-29T08:14:59;28.80;;;20.50;;
30398;SDS011;17195;50.838;7.214;2023-04-29T08:17:24;31.55;;;22.63;;
30398;SDS011;17195;50.838;7.214;2023-04-29T08:19:50;33.15;;;22.65;;
30398;SDS011;17195;50.838;7.214;2023-04-29T08:22:15;32.65;;;23.30;;
30398;SDS011;17195;50.838;7.214;2023-04-29T08:24:41;35.72;;;24.13;;
30398;SDS011;17195;50.838;7.214;2023-04-29T08:27:07;36.42;;;23.50;;
30398;SDS011;17195;50.838;7.214;2023-04-29T08:29:33;33.75;;;23.45;;
30398;SDS011;17195;50.838;7.214;2023-04-29T08:31:58;36.38;;;25.25;;
30398;SDS011;17195;50.838;7.214;2023-04-29T08:34:24;39.10;;;23.45;;
30398;SDS011;17195;50.838;7.214;2023-04-29T08:36:50;35.20;;;24.55;;
30398;SDS011;17195;50.838;7.214;2023-04-29T08:39:16;35.67;;;25.20;;
30398;SDS011;17195;50.838;7.214;2023-04-29T08:41:41;37.67;;;24.98;;
30398;SDS011;17195;50.838;7.214;2023-04-29T08:44:13;37.75;;;25.73;;
30398;SDS011;17195;50.838;7.214;2023-04-29T08:46:39;39.13;;;25.77;;
30398;SDS011;17195;50.838;7.214;2023-04-29T08:49:05;39.03;;;26.92;;
30398;SDS011;17195;50.838;7.214;2023-04-29T08:51:31;36.45;;;26.73;;
30398;SDS011;17195;50.838;7.214;2023-04-29T08:53:57;43.28;;;27.20;;
30398;SDS011;17195;50.838;7.214;2023-04-29T08:56:23;38.15;;;26.25;;
30398;SDS011;17195;50.838;7.214;2023-04-29T08:58:49;36.45;;;25.92;;
30398;SDS011;17195;50.838;7.214;2023-04-29T09:01:19;39.95;;;26.00;;
30398;SDS011;17195;50.838;7.214;2023-04-29T09:06:14;36.95;;;24.23;;
30398;SDS011;17195;50.838;7.214;2023-04-29T09:08:41;34.50;;;25.23;;
30398;SDS011;17195;50.838;7.214;2023-04-29T09:11:09;32.85;;;23.85;;
30398;SDS011;17195;50.838;7.214;2023-04-29T09:13:36;35.38;;;24.40;;
30398;SDS011;17195;50.838;7.214;2023-04-29T09:16:02;35.15;;;24.52;;
30398;SDS011;17195;50.838;7.214;2023-04-29T09:18:41;33.72;;;24.40;;
30398;SDS011;17195;50.838;7.214;2023-04-29T09:21:12;34.85;;;24.23;;
30398;SDS011;17195;50.838;7.214;2023-04-29T09:23:54;34.67;;;23.05;;
30398;SDS011;17195;50.838;7.214;2023-04-29T09:26:21;31.55;;;23.67;;
30398;SDS011;17195;50.838;7.214;2023-04-29T09:31:37;32.80;;;21.90;;
30398;SDS011;17195;50.838;7.214;2023-04-29T09:34:03;26.08;;;19.77;;
30398;SDS011;17195;50.838;7.214;2023-04-29T09:36:36;25.23;;;18.83;;
30398;SDS011;17195;50.838;7.214;2023-04-29T09:39:12;27.52;;;19.98;;
30398;SDS011;17195;50.838;7.214;2023-04-29T09:41:56;29.73;;;21.25;;
30398;SDS011;17195;50.838;7.214;2023-04-29T09:44:26;29.05;;;19.15;;
30398;SDS011;17195;50.838;7.214;2023-04-29T09:47:06;27.92;;;18.05;;
30398;SDS011;17195;50.838;7.214;2023-04-29T09:49:34;28.52;;;18.38;;
30398;SDS011;17195;50.838;7.214;2023-04-29T09:52:07;29.98;;;19.77;;
30398;SDS011;17195;50.838;7.214;2023-04-29T09:54:34;28.65;;;20.15;;
30398;SDS011;17195;50.838;7.214;2023-04-29T09:57:01;28.73;;;19.63;;
30398;SDS011;17195;50.838;7.214;2023-04-29T09:59:30;25.27;;;17.73;;
30398;SDS011;17195;50.838;7.214;2023-04-29T10:01:57;27.63;;;19.70;;
30398;SDS011;17195;50.838;7.214;2023-04-29T10:04:24;30.17;;;19.65;;
30398;SDS011;17195;50.838;7.214;2023-04-29T10:06:52;29.88;;;18.83;;
30398;SDS011;17195;50.838;7.214;2023-04-29T10:09:19;28.83;;;20.02;;
30398;SDS011;17195;50.838;7.214;2023-04-29T10:11:47;27.08;;;20.33;;
30398;SDS011;17195;50.838;7.214;2023-04-29T10:14:15;31.60;;;21.10;;
30398;SDS011;17195;50.838;7.214;2023-04-29T10:16:46;34.85;;;23.70;;
30398;SDS011;17195;50.838;7.214;2023-04-29T10:19:26;33.50;;;22.85;;
30398;SDS011;17195;50.838;7.214;2023-04-29T10:21:59;29.20;;;21.38;;
30398;SDS011;17195;50.838;7.214;2023-04-29T10:24:38;30.83;;;22.70;;
30398;SDS011;17195;50.838;7.214;2023-04-29T10:27:07;32.90;;;23.00;;
30398;SDS011;17195;50.838;7.214;2023-04-29T10:29:36;32.35;;;23.15;;
30398;SDS011;17195;50.838;7.214;2023-04-29T10:32:04;34.28;;;23.65;;
30398;SDS011;17195;50.838;7.214;2023-04-29T10:34:33;34.83;;;24.33;;
30398;SDS011;17195;50.838;7.214;2023-04-29T10:37:01;32.95;;;24.00;;
30398;SDS011;17195;50.838;7.214;2023-04-29T10:39:33;34.35;;;24.10;;
30398;SDS011;17195;50.838;7.214;2023-04-29T10:42:14;36.08;;;23.73;;
30398;SDS011;17195;50.838;7.214;2023-04-29T10:48:10;37.22;;;25.73;;
30398;SDS011;17195;50.838;7.214;2023-04-29T10:53:13;33.92;;;24.70;;
30398;SDS011;17195;50.838;7.214;2023-04-29T10:55:40;34.67;;;23.42;;
30398;SDS011;17195;50.838;7.214;2023-04-29T11:00:59;36.30;;;24.95;;
30398;SDS011;17195;50.838;7.214;2023-04-29T11:06:19;37.13;;;27.00;;
30398;SDS011;17195;50.838;7.214;2023-04-29T11:08:59;35.08;;;25.17;;
30398;SDS011;17195;50.838;7.214;2023-04-29T11:11:26;39.45;;;26.83;;
30398;SDS011;17195;50.838;7.214;2023-04-29T11:14:08;39.28;;;26.75;;
30398;SDS011;17195;50.838;7.214;2023-04-29T11:16:37;42.33;;;28.92;;
30398;SDS011;17195;50.838;7.214;2023-04-29T11:19:13;43.53;;;30.95;;
30398;SDS011;17195;50.838;7.214;2023-04-29T11:21:40;46.78;;;32.08;;
30398;SDS011;17195;50.838;7.214;2023-04-29T11:24:05;43.97;;;31.20;;
30398;SDS011;17195;50.838;7.214;2023-04-29T11:26:34;48.45;;;32.78;;
30398;SDS011;17195;50.838;7.214;2023-04-29T11:29:01;45.30;;;31.85;;
30398;SDS011;17195;50.838;7.214;2023-04-29T11:31:29;47.03;;;32.58;;
30398;SDS011;17195;50.838;7.214;2023-04-29T11:33:55;50.70;;;34.97;;
30398;SDS011;17195;50.838;7.214;2023-04-29T11:36:21;54.53;;;35.22;;
30398;SDS011;17195;50.838;7.214;2023-04-29T11:38:47;48.75;;;34.85;;
30398;SDS011;17195;50.838;7.214;2023-04-29T11:41:12;50.65;;;34.67;;
30398;SDS011;17195;50.838;7.214;2023-04-29T11:43:39;54.25;;;36.13;;
30398;SDS011;17195;50.838;7.214;2023-04-29T11:46:11;52.83;;;36.63;;
30398;SDS011;17195;50.838;7.214;2023-04-29T11:48:44;58.17;;;39.47;;
30398;SDS011;17195;50.838;7.214;2023-04-29T11:51:16;57.97;;;38.53;;
30398;SDS011;17195;50.838;7.214;2023-04-29T11:53:43;49.10;;;34.30;;
30398;SDS011;17195;50.838;7.214;2023-04-29T11:56:09;53.67;;;35.30;;
30398;SDS011;17195;50.838;7.214;2023-04-29T11:58:35;59.38;;;38.40;;
30398;SDS011;17195;50.838;7.214;2023-04-29T12:01:01;55.22;;;34.97;;
30398;SDS011;17195;50.838;7.214;2023-04-29T12:03:28;58.55;;;36.03;;
30398;SDS011;17195;50.838;7.214;2023-04-29T12:05:55;61.75;;;37.80;;
30398;SDS011;17195;50.838;7.214;2023-04-29T12:08:21;64.07;;;38.33;;
30398;SDS011;17195;50.838;7.214;2023-04-29T12:10:51;67.03;;;41.13;;
30398;SDS011;17195;50.838;7.214;2023-04-29T12:13:18;85.63;;;52.35;;
30398;SDS011;17195;50.838;7.214;2023-04-29T12:15:44;69.10;;;41.45;;
30398;SDS011;17195;50.838;7.214;2023-04-29T12:18:12;58.55;;;38.78;;
30398;SDS011;17195;50.838;7.214;2023-04-29T12:20:38;54.50;;;34.88;;
30398;SDS011;17195;50.838;7.214;2023-04-29T12:23:14;46.92;;;28.58;;
30398;SDS011;17195;50.838;7.214;2023-04-29T12:25:50;49.50;;;29.98;;
30398;SDS011;17195;50.838;7.214;2023-04-29T12:28:18;46.95;;;27.25;;
30398;SDS011;17195;50.838;7.214;2023-04-29T12:30:45;41.60;;;26.02;;
30398;SDS011;17195;50.838;7.214;2023-04-29T12:33:21;47.55;;;26.98;;
30398;SDS011;17195;50.838;7.214;2023-04-29T12:35:49;46.40;;;27.50;;
30398;SDS011;17195;50.838;7.214;2023-04-29T12:38:22;44.78;;;26.42;;
30398;SDS011;17195;50.838;7.214;2023-04-29T12:40:53;46.00;;;26.45;;
30398;SDS011;17195;50.838;7.214;2023-04-29T12:43:24;47.38;;;28.23;;
30398;SDS011;17195;50.838;7.214;2023-04-29T12:45:52;47.35;;;26.70;;
30398;SDS011;17195;50.838;7.214;2023-04-29T12:48:28;41.70;;;25.83;;
30398;SDS011;17195;50.838;7.214;2023-04-29T12:50:57;42.88;;;26.67;;
30398;SDS011;17195;50.838;7.214;2023-04-29T12:53:24;41.00;;;24.88;;
30398;SDS011;17195;50.838;7.214;2023-04-29T12:55:50;44.67;;;25.63;;
30398;SDS011;17195;50.838;7.214;2023-04-29T12:58:16;42.05;;;24.95;;
30398;SDS011;17195;50.838;7.214;2023-04-29T13:00:42;40.17;;;24.58;;
30398;SDS011;17195;50.838;7.214;2023-04-29T13:03:08;40.53;;;24.58;;
30398;SDS011;17195;50.838;7.214;2023-04-29T13:05:33;35.30;;;23.88;;
30398;SDS011;17195;50.838;7.214;2023-04-29T13:07:59;37.75;;;22.98;;
30398;SDS011;17195;50.838;7.214;2023-04-29T13:10:25;43.97;;;26.45;;
30398;SDS011;17195;50.838;7.214;2023-04-29T13:12:52;42.63;;;28.50;;
30398;SDS011;17195;50.838;7.214;2023-04-29T13:15:18;41.90;;;28.15;;
30398;SDS011;17195;50.838;7.214;2023-04-29T13:17:44;41.17;;;25.55;;
30398;SDS011;17195;50.838;7.214;2023-04-29T13:20:10;39.70;;;26.38;;
30398;SDS011;17195;50.838;7.214;2023-04-29T13:22:36;40.72;;;24.95;;
30398;SDS011;17195;50.838;7.214;2023-04-29T13:25:02;36.58;;;24.02;;
30398;SDS011;17195;50.838;7.214;2023-04-29T13:27:28;37.15;;;22.67;;
30398;SDS011;17195;50.838;7.214;2023-04-29T13:29:54;31.83;;;21.88;;
30398;SDS011;17195;50.838;7.214;2023-04-29T13:32:20;35.90;;;23.15;;
30398;SDS011;17195;50.838;7.214;2023-04-29T13:34:47;42.47;;;23.70;;
30398;SDS011;17195;50.838;7.214;2023-04-29T13:37:14;36.47;;;23.27;;
30398;SDS011;17195;50.838;7.214;2023-04-29T13:39:39;34.60;;;22.33;;
30398;SDS011;17195;50.838;7.214;2023-04-29T13:42:05;34.88;;;21.20;;
30398;SDS011;17195;50.838;7.214;2023-04-29T13:44:31;32.28;;;21.88;;
30398;SDS011;17195;50.838;7.214;2023-04-29T13:46:56;37.35;;;24.98;;
30398;SDS011;17195;50.838;7.214;2023-04-29T13:49:22;33.55;;;20.80;;
30398;SDS011;17195;50.838;7.214;2023-04-29T13:51:47;31.88;;;21.50;;
30398;SDS011;17195;50.838;7.214;2023-04-29T13:54:13;31.15;;;21.38;;
30398;SDS011;17195;50.838;7.214;2023-04-29T13:56:38;33.13;;;21.13;;
30398;SDS011;17195;50.838;7.214;2023-04-29T13:59:04;32.25;;;21.98;;
30398;SDS011;17195;50.838;7.214;2023-04-29T14:01:30;31.85;;;20.67;;
30398;SDS011;17195;50.838;7.214;2023-04-29T14:03:55;28.88;;;20.08;;
30398;SDS011;17195;50.838;7.214;2023-04-29T14:06:21;32.05;;;21.48;;
30398;SDS011;17195;50.838;7.214;2023-04-29T14:08:47;45.88;;;31.70;;
30398;SDS011;17195;50.838;7.214;2023-04-29T14:11:12;38.78;;;24.33;;
30398;SDS011;17195;50.838;7.214;2023-04-29T14:13:38;33.53;;;22.80;;
30398;SDS011;17195;50.838;7.214;2023-04-29T14:16:04;33.80;;;20.27;;
30398;SDS011;17195;50.838;7.214;2023-04-29T14:18:30;32.30;;;20.63;;
30398;SDS011;17195;50.838;7.214;2023-04-29T14:20:56;32.35;;;20.05;;
30398;SDS011;17195;50.838;7.214;2023-04-29T14:23:23;26.42;;;18.85;;
30398;SDS011;17195;50.838;7.214;2023-04-29T14:25:49;30.98;;;19.30;;
30398;SDS011;17195;50.838;7.214;2023-04-29T14:28:15;31.88;;;20.55;;
30398;SDS011;17195;50.838;7.214;2023-04-29T14:30:40;29.45;;;21.25;;
30398;SDS011;17195;50.838;7.214;2023-04-29T14:33:07;39.28;;;26.55;;
30398;SDS011;17195;50.838;7.214;2023-04-29T14:35:33;34.38;;;24.38;;
30398;SDS011;17195;50.838;7.214;2023-04-29T14:37:58;33.40;;;21.90;;
30398;SDS011;17195;50.838;7.214;2023-04-29T14:40:24;31.40;;;21.27;;
30398;SDS011;17195;50.838;7.214;2023-04-29T14:42:49;30.98;;;19.80;;
30398;SDS011;17195;50.838;7.214;2023-04-29T14:45:15;29.77;;;20.58;;
30398;SDS011;17195;50.838;7.214;2023-04-29T14:47:41;32.45;;;20.52;;
30398;SDS011;17195;50.838;7.214;2023-04-29T14:50:07;33.47;;;20.52;;